Time;durP1;ratioP1;P1;durP2;ratioP2;P2;SDS_P1;SDS_P2;PMS_P1;PMS_P2;Temp;Humidity;BMP_temperature;BMP_pressure;BME280_temperature;BME280_humidity;BME280_pressure;Samples;Min_cycle;Max_cycle;Signal;HPM_P1;HPM_P2
2021/06/05 00:02:18;;;;;;;6.22;5.63;;;16.80;86.90;;;;;;5065204;28;20043;-78
2021/06/05 00:04:44;;;;;;;6.00;4.82;;;16.80;86.60;;;;;;5072828;28;20102;-77
2021/06/05 00:07:10;;;;;;;8.57;5.50;;;16.80;86.60;;;;;;5065674;28;20016;-78
2021/06/05 00:09:36;;;;;;;7.00;5.18;;;16.80;86.30;;;;;;5068802;28;20056;-78
2021/06/05 00:12:02;;;;;;;5.70;4.82;;;16.70;86.50;;;;;;5069493;28;20025;-78
2021/06/05 00:14:27;;;;;;;6.72;4.88;;;16.60;86.50;;;;;;5070202;28;20044;-78
2021/06/05 00:16:53;;;;;;;5.90;4.43;;;16.50;86.70;;;;;;5067074;28;20029;-78
2021/06/05 00:19:20;;;;;;;5.80;4.97;;;16.50;86.20;;;;;;5072573;28;20025;-78
2021/06/05 00:21:47;;;;;;;6.55;5.07;;;16.50;86.10;;;;;;5067487;28;20036;-78
2021/06/05 00:24:18;;;;;;;5.78;4.82;;;16.50;86.50;;;;;;5070013;28;20021;-78
2021/06/05 00:26:43;;;;;;;7.88;5.15;;;16.40;86.30;;;;;;5077301;28;20040;-78
2021/06/05 00:29:09;;;;;;;6.00;4.85;;;16.30;87.00;;;;;;5065328;28;20021;-78
2021/06/05 00:31:35;;;;;;;7.20;5.50;;;16.30;86.50;;;;;;5066870;28;20087;-78
2021/06/05 00:34:01;;;;;;;6.50;4.50;;;16.30;87.00;;;;;;5079414;28;20031;-78
2021/06/05 00:36:28;;;;;;;5.13;4.63;;;16.10;87.70;;;;;;5078408;28;20028;-78
2021/06/05 00:38:54;;;;;;;4.82;4.32;;;16.10;88.20;;;;;;5073844;28;20027;-78
2021/06/05 00:41:22;;;;;;;9.25;4.95;;;16.00;88.20;;;;;;5074590;28;20032;-78
2021/06/05 00:43:51;;;;;;;5.70;4.78;;;16.10;87.90;;;;;;5069690;28;20017;-78
2021/06/05 00:46:20;;;;;;;5.60;5.00;;;16.10;87.50;;;;;;5071497;28;20017;-78
2021/06/05 00:48:46;;;;;;;5.25;4.75;;;16.10;88.40;;;;;;5070983;28;20021;-78
2021/06/05 00:51:13;;;;;;;7.72;5.05;;;16.10;88.00;;;;;;5070762;28;20036;-79
2021/06/05 00:53:44;;;;;;;5.38;4.70;;;16.10;88.20;;;;;;5069093;28;20024;-78
2021/06/05 00:56:12;;;;;;;5.68;4.97;;;16.10;88.20;;;;;;5071025;28;20147;-78
2021/06/05 00:58:38;;;;;;;6.10;5.05;;;16.20;87.70;;;;;;5067077;28;20533;-78
2021/06/05 01:01:16;;;;;;;5.90;5.30;;;16.20;87.30;;;;;;5062990;28;20060;-78
2021/06/05 01:03:44;;;;;;;5.80;4.53;;;16.20;86.90;;;;;;5040627;28;20028;-78
2021/06/05 01:06:17;;;;;;;;;;;16.20;86.40;;;;;;5065589;28;20033;-79
2021/06/05 01:08:56;;;;;;;5.88;5.15;;;16.20;86.30;;;;;;5052597;28;19914;-78
2021/06/05 01:11:46;;;;;;;7.05;5.70;;;16.20;87.10;;;;;;5050559;28;20055;-79
2021/06/05 01:14:36;;;;;;;7.72;6.18;;;16.20;88.20;;;;;;5071255;28;20020;-78
2021/06/05 01:17:09;;;;;;;7.75;6.20;;;16.20;88.40;;;;;;5071320;28;20032;-78
2021/06/05 01:19:40;;;;;;;9.65;7.18;;;16.10;88.60;;;;;;5077615;28;20024;-78
2021/06/05 01:22:29;;;;;;;8.05;6.38;;;16.00;90.00;;;;;;5073761;28;20035;-79
2021/06/05 01:25:00;;;;;;;9.00;7.25;;;16.00;89.70;;;;;;5066677;28;20025;-79
2021/06/05 01:27:33;;;;;;;9.80;7.25;;;16.10;90.00;;;;;;5070866;28;20023;-79
2021/06/05 01:30:07;;;;;;;8.70;6.72;;;16.10;89.90;;;;;;5048668;28;20063;-79
2021/06/05 01:32:34;;;;;;;8.50;6.90;;;16.10;89.70;;;;;;5067413;28;20039;-79
2021/06/05 01:35:00;;;;;;;9.30;7.20;;;16.10;89.60;;;;;;5068213;28;20029;-79
2021/06/05 01:37:26;;;;;;;7.25;6.13;;;16.00;89.10;;;;;;5072163;28;20027;-79
2021/06/05 01:39:53;;;;;;;7.75;6.95;;;16.10;88.80;;;;;;5063688;28;20452;-79
2021/06/05 01:42:27;;;;;;;8.45;6.57;;;16.00;88.80;;;;;;5051106;28;20380;-79
2021/06/05 01:44:55;;;;;;;8.77;6.93;;;16.00;88.50;;;;;;5062698;28;20041;-79
2021/06/05 01:47:22;;;;;;;9.55;6.93;;;15.90;88.70;;;;;;5069736;28;20040;-79
2021/06/05 01:49:48;;;;;;;8.70;6.93;;;15.90;88.60;;;;;;5067627;28;20115;-79
2021/06/05 01:52:21;;;;;;;9.38;7.15;;;15.90;88.70;;;;;;5047772;28;20383;-79
2021/06/05 01:55:15;;;;;;;11.00;7.40;;;15.90;88.50;;;;;;5077456;28;20024;-79
2021/06/05 01:57:48;;;;;;;9.88;7.35;;;15.90;88.50;;;;;;5054618;28;20096;-79
2021/06/05 02:00:19;;;;;;;10.73;7.05;;;15.90;88.60;;;;;;5083448;28;20062;-79
2021/06/05 02:02:45;;;;;;;10.23;7.40;;;15.90;88.60;;;;;;5069240;28;20051;-78
2021/06/05 02:05:11;;;;;;;9.05;7.43;;;15.90;88.30;;;;;;5072004;28;20458;-79
2021/06/05 02:07:37;;;;;;;8.60;7.70;;;15.80;88.50;;;;;;5066327;28;20496;-78
2021/06/05 02:10:09;;;;;;;10.63;7.53;;;15.80;88.70;;;;;;5071564;28;20029;-79
2021/06/05 02:12:34;;;;;;;11.38;7.78;;;15.80;88.50;;;;;;5052939;28;20618;-79
2021/06/05 02:15:19;;;;;;;10.88;8.25;;;15.80;88.30;;;;;;5072606;28;20048;-78
2021/06/05 02:17:45;;;;;;;9.68;6.93;;;15.80;88.40;;;;;;5055905;28;20052;-79
2021/06/05 02:20:21;;;;;;;11.55;7.68;;;15.80;88.10;;;;;;5080194;28;20037;-79
2021/06/05 02:22:47;;;;;;;9.85;7.43;;;15.80;88.00;;;;;;5066495;28;20017;-79
2021/06/05 02:25:16;;;;;;;10.93;7.45;;;15.70;88.10;;;;;;5078902;28;20094;-79
2021/06/05 02:27:43;;;;;;;10.85;8.20;;;15.80;88.10;;;;;;5050418;28;20047;-79
2021/06/05 02:30:14;;;;;;;10.05;7.60;;;15.80;88.50;;;;;;5073065;28;20029;-79
2021/06/05 02:32:40;;;;;;;14.15;8.65;;;15.80;89.40;;;;;;5073811;28;20611;-79
2021/06/05 02:35:10;;;;;;;13.48;9.23;;;15.70;88.60;;;;;;5074877;28;20028;-79
2021/06/05 02:37:37;;;;;;;12.07;8.57;;;15.70;88.30;;;;;;5067860;28;20028;-79
2021/06/05 02:40:09;;;;;;;11.65;8.60;;;15.70;88.20;;;;;;5078441;28;20043;-79
2021/06/05 02:42:38;;;;;;;12.18;8.15;;;15.70;87.60;;;;;;5083096;28;20035;-79
2021/06/05 02:45:08;;;;;;;14.10;8.25;;;15.70;87.60;;;;;;5080596;28;20039;-79
2021/06/05 02:47:34;;;;;;;14.10;9.07;;;15.70;87.70;;;;;;5068741;28;20017;-79
2021/06/05 02:50:01;;;;;;;10.93;7.90;;;15.70;88.20;;;;;;5069382;28;20085;-79
2021/06/05 02:52:31;;;;;;;13.20;8.93;;;15.70;87.80;;;;;;5072856;28;20025;-79
2021/06/05 02:55:10;;;;;;;11.38;8.48;;;15.70;87.50;;;;;;5074842;28;20035;-79
2021/06/05 02:57:37;;;;;;;14.43;8.85;;;15.60;87.40;;;;;;5075577;28;20029;-79
2021/06/05 03:00:17;;;;;;;12.52;8.80;;;15.60;87.90;;;;;;5058312;28;20032;-79
2021/06/05 03:02:42;;;;;;;12.20;8.52;;;15.50;88.10;;;;;;5077435;28;20390;-79
2021/06/05 03:05:09;;;;;;;11.23;8.52;;;15.50;88.50;;;;;;5074079;28;20024;-78
2021/06/05 03:07:35;;;;;;;14.48;8.95;;;15.60;88.60;;;;;;5081161;28;20016;-79
2021/06/05 03:10:02;;;;;;;14.73;9.32;;;15.60;88.50;;;;;;5079510;28;20035;-79
2021/06/05 03:12:28;;;;;;;13.52;9.40;;;15.40;88.40;;;;;;5076443;28;20031;-79
2021/06/05 03:14:54;;;;;;;11.68;8.88;;;15.40;89.00;;;;;;5075690;28;20367;-78
2021/06/05 03:17:19;;;;;;;12.15;8.63;;;15.40;89.10;;;;;;5071183;28;20074;-79
2021/06/05 03:19:45;;;;;;;14.13;9.02;;;15.40;89.00;;;;;;5073268;28;20051;-79
2021/06/05 03:22:11;;;;;;;11.45;8.25;;;15.40;89.50;;;;;;5071124;28;20025;-79
2021/06/05 03:24:36;;;;;;;12.55;8.35;;;15.30;89.40;;;;;;5052204;28;20021;-79
2021/06/05 03:27:03;;;;;;;12.02;8.20;;;15.40;89.40;;;;;;5076212;28;20575;-79
2021/06/05 03:29:32;;;;;;;11.10;8.00;;;15.30;87.60;;;;;;5053543;28;20028;-79
2021/06/05 03:31:58;;;;;;;11.15;7.70;;;15.20;87.90;;;;;;5055239;28;20091;-79
2021/06/05 03:34:24;;;;;;;9.57;7.70;;;15.10;87.20;;;;;;5070455;28;20017;-80
2021/06/05 03:36:50;;;;;;;11.40;8.02;;;15.10;87.20;;;;;;5051200;28;20249;-79
2021/06/05 03:39:16;;;;;;;11.52;8.05;;;15.00;88.10;;;;;;5072187;28;20521;-79
2021/06/05 03:41:44;;;;;;;10.25;7.97;;;14.90;88.40;;;;;;5055075;28;20107;-79
2021/06/05 03:44:10;;;;;;;9.83;8.47;;;14.90;89.10;;;;;;5071097;28;20041;-79
2021/06/05 03:46:36;;;;;;;11.82;8.63;;;14.80;89.30;;;;;;5067677;28;20046;-79
2021/06/05 03:49:03;;;;;;;10.13;8.00;;;14.90;89.30;;;;;;5048807;28;20032;-78
2021/06/05 03:51:28;;;;;;;11.45;8.18;;;14.90;89.40;;;;;;5064103;28;20028;-78
2021/06/05 03:53:54;;;;;;;11.32;7.80;;;14.90;89.80;;;;;;5063789;28;20104;-78
2021/06/05 03:56:20;;;;;;;10.07;7.47;;;14.90;89.80;;;;;;5062044;28;20032;-79
2021/06/05 03:58:46;;;;;;;10.27;7.32;;;14.90;89.80;;;;;;5044873;28;22294;-79
2021/06/05 04:01:19;;;;;;;9.13;7.28;;;15.00;90.00;;;;;;5060609;28;20892;-79
2021/06/05 04:03:45;;;;;;;11.00;7.22;;;15.00;89.50;;;;;;5061176;28;20096;-78
2021/06/05 04:06:11;;;;;;;14.07;7.43;;;15.10;89.70;;;;;;5060271;28;20043;-78
2021/06/05 04:08:37;;;;;;;10.32;6.90;;;15.10;90.00;;;;;;5045444;28;20060;-78
2021/06/05 04:11:04;;;;;;;7.65;6.47;;;15.20;89.60;;;;;;5043827;28;20071;-78
2021/06/05 04:13:30;;;;;;;9.95;6.60;;;15.20;89.50;;;;;;5062933;28;20051;-78
2021/06/05 04:15:56;;;;;;;10.75;7.82;;;15.30;89.30;;;;;;5068112;28;20021;-77
2021/06/05 04:18:31;;;;;;;11.30;7.07;;;15.40;89.40;;;;;;5064235;28;20611;-78
2021/06/05 04:20:58;;;;;;;9.70;6.88;;;15.40;89.10;;;;;;5052451;28;20439;-79
2021/06/05 04:23:24;;;;;;;10.95;7.68;;;15.50;89.20;;;;;;5053464;28;20036;-79
2021/06/05 04:25:50;;;;;;;9.07;6.60;;;15.50;88.90;;;;;;5062760;28;20036;-78
2021/06/05 04:28:18;;;;;;;10.48;7.15;;;15.60;88.60;;;;;;5067608;28;20033;-79
2021/06/05 04:30:45;;;;;;;8.68;7.15;;;15.70;88.50;;;;;;5065999;28;20055;-79
2021/06/05 04:33:14;;;;;;;9.95;6.90;;;15.70;88.20;;;;;;5069871;28;20676;-78
2021/06/05 04:35:41;;;;;;;9.48;6.38;;;15.80;88.00;;;;;;5067625;28;20037;-79
2021/06/05 04:38:08;;;;;;;8.45;6.55;;;15.90;87.80;;;;;;5066575;28;20364;-79
2021/06/05 04:40:35;;;;;;;8.98;6.47;;;15.90;87.30;;;;;;5053759;28;20498;-79
2021/06/05 04:43:01;;;;;;;9.25;7.00;;;16.00;87.10;;;;;;5068422;28;20033;-79
2021/06/05 04:45:27;;;;;;;8.95;6.30;;;16.00;86.80;;;;;;5063499;28;20036;-79
2021/06/05 04:47:53;;;;;;;9.63;6.75;;;16.00;86.60;;;;;;5067554;28;20025;-79
2021/06/05 04:50:22;;;;;;;7.22;6.00;;;16.10;86.50;;;;;;5072937;28;20116;-79
2021/06/05 04:52:48;;;;;;;7.13;5.70;;;16.20;86.40;;;;;;5067944;28;20394;-77
2021/06/05 04:55:14;;;;;;;9.50;5.80;;;16.30;86.00;;;;;;5063910;28;20029;-79
2021/06/05 04:57:40;;;;;;;8.60;4.95;;;16.30;85.70;;;;;;5067287;28;20091;-79
2021/06/05 05:00:10;;;;;;;7.78;5.10;;;16.30;85.70;;;;;;5063257;28;20025;-79
2021/06/05 05:02:36;;;;;;;7.50;5.72;;;16.40;85.50;;;;;;5066924;28;20041;-79
2021/06/05 05:05:04;;;;;;;8.38;5.43;;;16.40;85.60;;;;;;5067321;28;20116;-79
2021/06/05 05:07:30;;;;;;;;;;;16.50;85.40;;;;;;5045333;28;20101;-78
2021/06/05 05:09:55;;;;;;;9.88;5.72;;;16.60;85.30;;;;;;5069839;28;19912;-78
2021/06/05 05:12:21;;;;;;;11.15;5.25;;;16.60;84.60;;;;;;5051394;28;20047;-79
2021/06/05 05:14:47;;;;;;;7.93;5.05;;;16.70;83.80;;;;;;5047104;28;20033;-79
2021/06/05 05:17:12;;;;;;;7.32;5.35;;;16.80;83.50;;;;;;5065335;28;20274;-79
2021/06/05 05:19:38;;;;;;;6.20;4.10;;;16.90;83.60;;;;;;5063333;28;20449;-79
2021/06/05 05:22:04;;;;;;;8.48;4.68;;;17.00;82.20;;;;;;5067178;28;20033;-79
2021/06/05 05:24:30;;;;;;;7.38;4.22;;;17.10;83.00;;;;;;5065288;28;20028;-79
2021/06/05 05:26:56;;;;;;;5.45;3.63;;;17.20;82.20;;;;;;5068913;28;20032;-79
2021/06/05 05:29:22;;;;;;;4.75;3.08;;;17.20;82.80;;;;;;5067474;28;20131;-79
2021/06/05 05:31:47;;;;;;;5.50;3.17;;;17.30;81.90;;;;;;5068270;28;20090;-79
2021/06/05 05:34:13;;;;;;;3.30;2.60;;;17.30;80.40;;;;;;5069451;28;20028;-78
2021/06/05 05:36:40;;;;;;;4.43;2.72;;;17.30;80.80;;;;;;5067624;28;20025;-79
2021/06/05 05:39:11;;;;;;;3.05;2.50;;;17.30;80.10;;;;;;5068944;28;20055;-79
2021/06/05 05:41:37;;;;;;;2.80;2.47;;;17.40;80.60;;;;;;5064012;28;20021;-79
2021/06/05 05:44:04;;;;;;;2.97;2.67;;;17.40;80.20;;;;;;5069937;28;20499;-80
2021/06/05 05:46:31;;;;;;;3.05;2.63;;;17.50;80.80;;;;;;5074748;28;20032;-80
2021/06/05 05:48:57;;;;;;;3.03;2.30;;;17.60;80.80;;;;;;5075315;28;20032;-81
2021/06/05 05:51:24;;;;;;;3.17;2.63;;;17.70;80.80;;;;;;5070689;28;20025;-81
2021/06/05 05:53:51;;;;;;;2.92;2.72;;;17.80;80.60;;;;;;5072095;28;20040;-79
2021/06/05 05:56:18;;;;;;;4.20;2.33;;;17.80;80.90;;;;;;5076749;28;20024;-81
2021/06/05 05:58:47;;;;;;;3.03;2.25;;;17.90;81.00;;;;;;5088639;28;20063;-80
2021/06/05 06:01:15;;;;;;;2.13;1.95;;;17.90;80.00;;;;;;5062245;28;20045;-81
2021/06/05 06:03:40;;;;;;;2.10;2.00;;;17.90;80.40;;;;;;5054223;28;20029;-80
2021/06/05 06:06:07;;;;;;;2.70;1.90;;;17.90;80.50;;;;;;5072028;28;20039;-81
2021/06/05 06:08:34;;;;;;;1.95;1.77;;;17.90;80.70;;;;;;5076502;28;20033;-80
2021/06/05 06:11:00;;;;;;;2.08;1.88;;;18.00;80.60;;;;;;5078990;28;20012;-80
2021/06/05 06:13:26;;;;;;;2.00;1.70;;;17.90;80.20;;;;;;5060241;28;20506;-79
2021/06/05 06:15:52;;;;;;;2.58;1.50;;;17.90;80.20;;;;;;5051861;28;20025;-80
2021/06/05 06:18:18;;;;;;;1.77;1.67;;;17.90;79.40;;;;;;5047024;28;20021;-79
2021/06/05 06:20:53;;;;;;;1.30;1.20;;;17.90;79.10;;;;;;5068390;28;20028;-80
2021/06/05 06:23:26;;;;;;;1.85;1.58;;;17.80;79.30;;;;;;5073641;28;20034;-81
2021/06/05 06:25:53;;;;;;;1.73;1.63;;;17.80;79.80;;;;;;5060445;28;20017;-80
2021/06/05 06:28:23;;;;;;;2.80;1.80;;;17.70;80.00;;;;;;5078608;28;20383;-79
2021/06/05 06:30:49;;;;;;;3.05;1.77;;;17.70;80.30;;;;;;5060092;28;20017;-80
2021/06/05 06:33:16;;;;;;;2.55;1.90;;;17.70;80.20;;;;;;5060790;28;20028;-80
2021/06/05 06:35:43;;;;;;;2.17;1.80;;;17.70;80.10;;;;;;5078378;28;20156;-79
2021/06/05 06:38:15;;;;;;;2.42;1.77;;;17.70;80.10;;;;;;5078431;28;20028;-79
2021/06/05 06:40:44;;;;;;;1.95;1.80;;;17.70;80.00;;;;;;5072878;28;20029;-79
2021/06/05 06:43:12;;;;;;;1.88;1.77;;;17.70;80.70;;;;;;5049699;28;20029;-81
2021/06/05 06:45:38;;;;;;;4.95;1.90;;;17.70;80.60;;;;;;5069106;28;20013;-79
2021/06/05 06:48:05;;;;;;;4.20;1.80;;;17.60;80.20;;;;;;5043734;28;20476;-80
2021/06/05 06:50:31;;;;;;;4.63;1.80;;;17.60;80.30;;;;;;5060994;28;20090;-80
2021/06/05 06:52:57;;;;;;;4.82;2.22;;;17.60;80.50;;;;;;5074689;28;20043;-81
2021/06/05 06:55:24;;;;;;;4.18;1.80;;;17.60;80.20;;;;;;5080188;28;20047;-81
2021/06/05 06:57:51;;;;;;;2.15;1.85;;;17.60;80.70;;;;;;5090162;28;20024;-79
2021/06/05 07:00:27;;;;;;;1.50;1.40;;;17.60;80.70;;;;;;5079032;28;20024;-79
2021/06/05 07:02:53;;;;;;;2.30;1.65;;;17.60;80.80;;;;;;5076625;28;20035;-81
2021/06/05 07:05:19;;;;;;;3.55;1.58;;;17.60;80.70;;;;;;5077781;28;20028;-79
2021/06/05 07:07:45;;;;;;;1.67;1.58;;;17.60;80.50;;;;;;5072329;28;20024;-78
2021/06/05 07:10:12;;;;;;;2.78;1.25;;;17.60;80.20;;;;;;5060467;28;20032;-79
2021/06/05 07:12:38;;;;;;;1.30;1.20;;;17.60;79.20;;;;;;5078840;28;20421;-80
2021/06/05 07:15:05;;;;;;;2.03;1.45;;;17.60;80.50;;;;;;5078812;28;20043;-79
2021/06/05 07:17:31;;;;;;;1.55;1.10;;;17.60;79.60;;;;;;5076911;28;20098;-79
2021/06/05 07:19:57;;;;;;;1.63;1.52;;;17.60;79.20;;;;;;5060231;28;20021;-78
2021/06/05 07:22:23;;;;;;;1.80;1.10;;;17.60;79.00;;;;;;5066911;28;20037;-79
2021/06/05 07:24:49;;;;;;;1.27;1.17;;;17.60;79.50;;;;;;5059245;28;20120;-80
2021/06/05 07:27:15;;;;;;;2.22;1.20;;;17.60;79.50;;;;;;5058427;28;20158;-80
2021/06/05 07:29:40;;;;;;;1.52;0.90;;;17.60;79.10;;;;;;5076349;28;20496;-79
2021/06/05 07:32:06;;;;;;;1.13;0.93;;;17.60;78.70;;;;;;5075952;28;20054;-80
2021/06/05 07:34:34;;;;;;;1.67;1.33;;;17.60;79.50;;;;;;5059911;28;20049;-79
2021/06/05 07:37:09;;;;;;;1.65;1.33;;;17.70;79.00;;;;;;5056601;28;20024;-79
2021/06/05 07:39:35;;;;;;;0.90;0.90;;;17.70;78.90;;;;;;5064857;28;20017;-81
2021/06/05 07:42:01;;;;;;;0.90;0.90;;;17.70;78.60;;;;;;5059891;28;20036;-80
2021/06/05 07:44:30;;;;;;;1.90;1.10;;;17.80;79.20;;;;;;5056848;28;20368;-79
2021/06/05 07:46:57;;;;;;;1.00;0.77;;;17.80;77.90;;;;;;5056263;28;20020;-81
2021/06/05 07:49:29;;;;;;;1.30;0.88;;;17.80;78.10;;;;;;5056957;28;20073;-80
2021/06/05 07:51:56;;;;;;;1.00;1.00;;;17.80;77.90;;;;;;5075726;28;20391;-82
2021/06/05 07:54:21;;;;;;;1.10;0.95;;;17.80;77.90;;;;;;5076179;28;20033;-80
2021/06/05 07:56:50;;;;;;;2.05;1.00;;;17.80;77.50;;;;;;5059276;28;20105;-80
2021/06/05 07:59:25;;;;;;;1.25;0.98;;;17.80;77.20;;;;;;5059109;28;20032;-79
2021/06/05 08:01:52;;;;;;;1.10;1.00;;;17.80;77.80;;;;;;5075933;28;20044;-81
2021/06/05 08:04:18;;;;;;;2.53;1.20;;;17.80;78.50;;;;;;5046677;28;20465;-81
2021/06/05 08:06:45;;;;;;;2.40;1.27;;;17.90;78.80;;;;;;5045290;28;20588;-81
2021/06/05 08:09:11;;;;;;;1.45;1.10;;;17.90;78.30;;;;;;5064471;28;20033;-81
2021/06/05 08:11:37;;;;;;;1.58;1.20;;;17.90;78.00;;;;;;5064553;28;20048;-80
2021/06/05 08:14:04;;;;;;;1.92;1.50;;;17.90;78.00;;;;;;5067462;28;20029;-80
2021/06/05 08:16:31;;;;;;;2.17;1.15;;;18.00;77.90;;;;;;5049852;28;20027;-81
2021/06/05 08:18:56;;;;;;;2.03;1.33;;;18.00;78.50;;;;;;5051151;28;20083;-82
2021/06/05 08:21:22;;;;;;;1.42;1.33;;;18.00;77.80;;;;;;5072815;28;20048;-81
2021/06/05 08:23:48;;;;;;;2.22;1.30;;;18.00;77.60;;;;;;5076763;28;20033;-81
2021/06/05 08:26:17;;;;;;;2.25;1.33;;;18.10;77.00;;;;;;5060676;28;20096;-81
2021/06/05 08:28:43;;;;;;;1.85;1.75;;;18.10;76.50;;;;;;5067612;28;20023;-82
2021/06/05 08:31:14;;;;;;;0.90;0.90;;;18.10;76.60;;;;;;5070077;28;20051;-80
2021/06/05 08:33:39;;;;;;;1.73;1.23;;;18.10;76.40;;;;;;5068404;28;20020;-80
2021/06/05 08:36:07;;;;;;;1.33;1.23;;;18.10;76.40;;;;;;5064429;28;20027;-78
2021/06/05 08:38:33;;;;;;;1.75;1.13;;;18.10;75.70;;;;;;5049710;28;20031;-80
2021/06/05 08:41:05;;;;;;;1.25;1.15;;;18.20;76.90;;;;;;5066805;28;20036;-80
2021/06/05 08:43:56;;;;;;;2.90;1.08;;;18.30;77.30;;;;;;5065199;28;20105;-81
2021/06/05 08:46:28;;;;;;;1.20;1.10;;;18.30;76.40;;;;;;5064034;28;20123;-80
2021/06/05 08:48:57;;;;;;;1.60;1.50;;;18.30;75.80;;;;;;5047059;28;20031;-80
2021/06/05 08:51:31;;;;;;;1.95;1.10;;;18.40;77.40;;;;;;5048646;28;20035;-79
2021/06/05 08:54:03;;;;;;;1.40;1.00;;;18.40;75.90;;;;;;5049149;28;20032;-80
2021/06/05 08:56:32;;;;;;;1.30;0.82;;;18.40;74.00;;;;;;5065750;28;20040;-79
2021/06/05 08:59:01;;;;;;;2.45;1.10;;;18.40;73.90;;;;;;5064206;28;20033;-79
2021/06/05 09:01:40;;;;;;;1.23;1.05;;;18.40;73.40;;;;;;5065661;28;20049;-80
2021/06/05 09:04:14;;;;;;;1.63;1.00;;;18.40;74.20;;;;;;5064996;28;20136;-79
2021/06/05 09:06:47;;;;;;;2.10;1.05;;;18.40;74.70;;;;;;5067325;28;20434;-79
2021/06/05 09:09:18;;;;;;;1.33;0.90;;;18.40;73.80;;;;;;5060930;28;20052;-78
2021/06/05 09:11:44;;;;;;;1.63;1.02;;;18.40;74.20;;;;;;5061266;28;20024;-79
2021/06/05 09:14:09;;;;;;;1.30;1.20;;;18.30;73.20;;;;;;5057420;28;20613;-78
2021/06/05 09:16:47;;;;;;;4.00;1.30;;;18.40;74.20;;;;;;5057363;28;20033;-79
2021/06/05 09:19:35;;;;;;;1.70;1.10;;;18.40;75.00;;;;;;5044557;28;20044;-77
2021/06/05 09:22:19;;;;;;;1.38;0.93;;;18.40;75.10;;;;;;5063499;28;20058;-79
2021/06/05 09:24:48;;;;;;;1.95;1.00;;;18.40;73.60;;;;;;5066118;28;20043;-80
2021/06/05 09:27:13;;;;;;;1.33;1.23;;;18.40;73.10;;;;;;5060195;28;20082;-78
2021/06/05 09:29:54;;;;;;;0.95;0.88;;;18.50;74.40;;;;;;5060753;28;20574;-79
2021/06/05 09:32:32;;;;;;;1.20;1.05;;;18.60;74.80;;;;;;5044928;28;20097;-79
2021/06/05 09:35:16;;;;;;;1.13;1.10;;;18.60;74.90;;;;;;5060794;28;20024;-80
2021/06/05 09:37:55;;;;;;;1.30;1.00;;;18.70;74.00;;;;;;5065555;28;20020;-80
2021/06/05 09:40:29;;;;;;;2.03;1.80;;;18.70;72.90;;;;;;5064776;28;20024;-79
2021/06/05 09:42:57;;;;;;;2.08;1.35;;;18.70;73.60;;;;;;5066986;28;20078;-78
2021/06/05 09:45:25;;;;;;;1.60;1.10;;;18.60;73.10;;;;;;5065993;28;20051;-78
2021/06/05 09:48:13;;;;;;;1.30;1.20;;;18.60;73.50;;;;;;5064148;28;20016;-78
2021/06/05 09:50:42;;;;;;;1.65;1.55;;;18.60;73.60;;;;;;5042716;28;20194;-77
2021/06/05 09:53:33;;;;;;;2.33;1.40;;;18.60;74.10;;;;;;5062754;28;20120;-78
2021/06/05 09:56:11;;;;;;;1.60;1.45;;;18.70;73.90;;;;;;5055438;28;20179;-79
2021/06/05 09:58:45;;;;;;;2.97;1.30;;;18.60;72.60;;;;;;5066530;28;20522;-78
2021/06/05 10:01:26;;;;;;;1.60;1.50;;;18.70;74.80;;;;;;5074521;28;20052;-78
2021/06/05 10:03:55;;;;;;;3.53;1.65;;;18.70;74.90;;;;;;5046660;28;20065;-81
2021/06/05 10:06:33;;;;;;;4.00;1.77;;;18.80;74.70;;;;;;5045025;28;20419;-81
2021/06/05 10:09:24;;;;;;;2.58;1.70;;;18.80;74.90;;;;;;5051695;28;20052;-81
2021/06/05 10:12:07;;;;;;;2.22;2.03;;;18.80;74.50;;;;;;5039944;28;20103;-81
2021/06/05 10:14:41;;;;;;;2.08;1.75;;;18.80;73.50;;;;;;5076473;28;20042;-80
2021/06/05 10:17:20;;;;;;;1.85;1.73;;;18.80;74.40;;;;;;5076231;28;20054;-81
2021/06/05 10:19:51;;;;;;;4.30;1.92;;;18.80;75.30;;;;;;5055418;28;20397;-82
2021/06/05 10:22:17;;;;;;;2.33;2.13;;;18.80;74.90;;;;;;5076716;28;20360;-80
2021/06/05 10:24:51;;;;;;;3.78;1.98;;;18.80;74.90;;;;;;5063359;28;20025;-81
2021/06/05 10:27:21;;;;;;;3.03;2.28;;;18.70;74.10;;;;;;5072893;28;20027;-81
2021/06/05 10:29:53;;;;;;;3.08;1.90;;;18.60;75.80;;;;;;5063083;28;20013;-81
2021/06/05 10:32:27;;;;;;;2.95;1.77;;;18.50;74.80;;;;;;5071507;28;20064;-81
2021/06/05 10:35:04;;;;;;;3.42;1.95;;;18.50;74.20;;;;;;5083016;28;20032;-81
2021/06/05 10:37:32;;;;;;;3.70;2.27;;;18.50;74.80;;;;;;5063999;28;20028;-82
2021/06/05 10:40:02;;;;;;;4.03;1.90;;;18.60;75.70;;;;;;5059014;28;20020;-81
2021/06/05 10:42:44;;;;;;;3.65;2.10;;;18.60;75.50;;;;;;5082166;28;20444;-81
2021/06/05 10:45:16;;;;;;;2.90;2.35;;;18.50;75.80;;;;;;5060374;28;20032;-81
2021/06/05 10:47:50;;;;;;;3.95;2.17;;;18.50;75.00;;;;;;5069568;28;20104;-81
2021/06/05 10:50:16;;;;;;;2.30;1.95;;;18.50;75.00;;;;;;5063100;28;20051;-80
2021/06/05 10:52:49;;;;;;;2.55;2.20;;;18.50;75.30;;;;;;5049818;28;20086;-80
2021/06/05 10:55:26;;;;;;;3.00;2.13;;;18.50;76.10;;;;;;5072786;28;20537;-80
2021/06/05 10:58:15;;;;;;;3.45;2.40;;;18.50;77.00;;;;;;5065442;28;20029;-80
2021/06/05 11:00:48;;;;;;;3.47;2.28;;;18.60;77.00;;;;;;5046407;28;20442;-80
2021/06/05 11:03:23;;;;;;;2.58;2.33;;;18.60;77.20;;;;;;5039151;28;20190;-82
2021/06/05 11:06:08;;;;;;;4.45;2.67;;;18.60;76.90;;;;;;5071641;28;20107;-79
2021/06/05 11:08:39;;;;;;;2.83;2.53;;;18.50;77.20;;;;;;5071402;28;20060;-80
2021/06/05 11:11:07;;;;;;;4.78;3.10;;;18.60;78.00;;;;;;5051633;28;20020;-79
2021/06/05 11:13:36;;;;;;;4.10;2.78;;;18.60;78.00;;;;;;5065994;28;20548;-80
2021/06/05 11:16:03;;;;;;;3.33;2.83;;;18.60;78.20;;;;;;5067695;28;20040;-80
2021/06/05 11:18:37;;;;;;;3.00;2.70;;;18.60;78.10;;;;;;5067260;28;20024;-82
2021/06/05 11:21:21;;;;;;;5.18;2.80;;;18.60;78.30;;;;;;5064063;28;20036;-81
2021/06/05 11:23:56;;;;;;;4.70;2.85;;;18.60;79.10;;;;;;5068111;28;20032;-80
2021/06/05 11:26:39;;;;;;;3.58;3.13;;;18.60;79.10;;;;;;5076089;28;20111;-80
2021/06/05 11:29:20;;;;;;;4.85;2.97;;;18.60;79.60;;;;;;5065909;28;20056;-80
2021/06/05 11:31:53;;;;;;;7.55;3.80;;;18.60;79.50;;;;;;5046790;28;20047;-79
2021/06/05 11:34:37;;;;;;;5.00;3.33;;;18.70;81.30;;;;;;5061468;28;20057;-79
2021/06/05 11:37:09;;;;;;;4.07;2.72;;;18.70;80.30;;;;;;5064915;28;20475;-79
2021/06/05 11:39:52;;;;;;;6.97;3.08;;;18.70;80.80;;;;;;5068607;28;20054;-80
2021/06/05 11:42:23;;;;;;;5.00;3.22;;;18.70;80.90;;;;;;5065789;28;20025;-79
2021/06/05 11:45:01;;;;;;;5.18;3.75;;;18.70;80.40;;;;;;5045236;28;20031;-80
2021/06/05 11:47:27;;;;;;;4.70;3.58;;;18.70;81.50;;;;;;5068309;28;20099;-80
2021/06/05 11:50:27;;;;;;;4.13;3.22;;;18.70;81.20;;;;;;5070906;28;20178;-80
2021/06/05 11:53:14;;;;;;;3.67;3.33;;;18.70;82.10;;;;;;5071301;28;20064;-79
2021/06/05 11:55:45;;;;;;;4.28;3.33;;;18.70;81.30;;;;;;5036409;28;20443;-79
2021/06/05 11:58:28;;;;;;;5.70;3.20;;;18.70;81.40;;;;;;5066095;28;20029;-79
2021/06/05 12:01:03;;;;;;;5.90;3.50;;;18.70;80.60;;;;;;5071153;28;20052;-79
2021/06/05 12:03:55;;;;;;;5.60;3.40;;;18.60;81.60;;;;;;5068138;28;20383;-79
2021/06/05 12:06:27;;;;;;;4.03;3.28;;;18.60;82.00;;;;;;5058903;28;20051;-78
2021/06/05 12:09:23;;;;;;;3.65;3.15;;;18.70;82.20;;;;;;5068204;28;20024;-79
2021/06/05 12:11:55;;;;;;;4.78;3.10;;;18.60;81.40;;;;;;5062134;28;20035;-79
2021/06/05 12:17:27;;;;;;;6.35;3.35;;;18.60;81.50;;;;;;5072345;28;20105;-78
2021/06/05 12:19:53;;;;;;;4.60;3.53;;;18.70;82.10;;;;;;5067916;28;20029;-80
2021/06/05 12:22:28;;;;;;;4.35;3.50;;;18.70;82.30;;;;;;5057826;28;20033;-80
2021/06/05 12:24:55;;;;;;;5.78;3.60;;;18.70;82.20;;;;;;5068136;28;20020;-80
2021/06/05 12:27:27;;;;;;;4.35;3.33;;;18.70;82.90;;;;;;5077162;28;20633;-79
2021/06/05 12:30:04;;;;;;;3.38;3.08;;;18.70;82.70;;;;;;5075212;28;20020;-80
2021/06/05 12:32:29;;;;;;;5.00;3.35;;;18.60;82.30;;;;;;5049668;28;20037;-80
2021/06/05 12:34:55;;;;;;;4.10;3.40;;;18.60;83.00;;;;;;5057296;28;20027;-79
2021/06/05 12:37:24;;;;;;;6.40;3.80;;;18.70;84.00;;;;;;5070653;28;20094;-80
2021/06/05 12:40:01;;;;;;;4.15;3.28;;;18.70;84.40;;;;;;5070824;28;20013;-81
2021/06/05 12:42:37;;;;;;;4.47;3.63;;;18.70;83.90;;;;;;5069766;28;20043;-81
2021/06/05 12:45:22;;;;;;;4.70;3.47;;;18.80;84.00;;;;;;5069398;28;20020;-82
2021/06/05 12:47:53;;;;;;;4.43;3.50;;;18.90;84.50;;;;;;5077045;28;20017;-82
2021/06/05 12:50:21;;;;;;;5.85;3.92;;;19.00;85.40;;;;;;5072676;28;20432;-80
2021/06/05 12:52:49;;;;;;;5.88;3.75;;;19.10;84.00;;;;;;5082454;28;20390;-81
2021/06/05 12:55:41;;;;;;;3.88;3.45;;;19.20;86.20;;;;;;5072871;28;20114;-80
2021/06/05 12:58:09;;;;;;;3.13;2.80;;;19.30;83.40;;;;;;5063241;28;20116;-82
2021/06/05 13:00:48;;;;;;;4.15;2.92;;;19.30;80.70;;;;;;5068419;28;20035;-81
2021/06/05 13:03:13;;;;;;;3.55;2.60;;;19.30;83.80;;;;;;5070691;28;20020;-81
2021/06/05 13:05:42;;;;;;;3.28;2.63;;;19.40;80.00;;;;;;5059921;28;20020;-81